createdAt,value
2022-11-18T00:00:19.135Z,2.70
2022-11-18T00:02:48.858Z,2.60
2022-11-18T00:05:19.082Z,2.60
2022-11-18T00:07:47.371Z,2.70
2022-11-18T00:10:15.835Z,2.70
2022-11-18T00:13:03.623Z,2.70
2022-11-18T00:15:32.014Z,2.80
2022-11-18T00:18:01.535Z,2.70
2022-11-18T00:20:29.791Z,2.70
2022-11-18T00:22:58.126Z,2.60
2022-11-18T00:25:26.219Z,2.70
2022-11-18T00:27:55.359Z,2.70
2022-11-18T00:30:23.422Z,2.70
2022-11-18T00:32:51.558Z,2.70
2022-11-18T00:35:21.214Z,2.60
2022-11-18T00:37:49.599Z,2.70
2022-11-18T00:40:18.265Z,2.70
2022-11-18T00:42:54.250Z,2.60
2022-11-18T00:45:23.152Z,2.60
2022-11-18T00:47:51.426Z,2.60
2022-11-18T00:50:21.124Z,2.60
2022-11-18T00:52:49.290Z,2.60
2022-11-18T00:55:17.448Z,2.50
2022-11-18T00:57:45.740Z,2.60
2022-11-18T01:00:14.394Z,2.60
2022-11-18T01:02:44.393Z,2.60
2022-11-18T01:05:12.529Z,2.70
2022-11-18T01:07:42.176Z,2.70
2022-11-18T01:10:10.758Z,2.70
2022-11-18T01:12:56.502Z,2.70
2022-11-18T01:15:27.327Z,2.60
2022-11-18T01:17:55.424Z,2.60
2022-11-18T01:20:23.764Z,2.70
2022-11-18T01:22:53.326Z,2.60
2022-11-18T01:25:21.469Z,2.60
2022-11-18T01:27:49.769Z,2.60
2022-11-18T01:30:17.859Z,2.50
2022-11-18T01:32:46.008Z,2.50
2022-11-18T01:35:14.433Z,2.50
2022-11-18T01:37:42.551Z,2.50
2022-11-18T01:40:12.814Z,2.40
2022-11-18T01:42:40.887Z,2.40
2022-11-18T01:45:21.090Z,2.50
2022-11-18T01:47:53.456Z,2.50
2022-11-18T01:50:22.503Z,2.50
2022-11-18T01:52:52.025Z,2.60
2022-11-18T01:55:24.656Z,2.70
2022-11-18T01:57:54.298Z,2.70
2022-11-18T02:00:22.621Z,2.60
2022-11-18T02:02:51.023Z,2.60
2022-11-18T02:05:20.189Z,2.60
2022-11-18T02:07:48.626Z,2.50
2022-11-18T02:10:19.261Z,2.50
2022-11-18T02:12:49.182Z,2.50
2022-11-18T02:15:20.795Z,2.50
2022-11-18T02:17:55.413Z,2.50
2022-11-18T02:20:30.961Z,2.50
2022-11-18T02:23:22.733Z,2.40
2022-11-18T02:25:59.778Z,2.40
2022-11-18T02:28:37.105Z,2.40
2022-11-18T02:31:09.786Z,2.40
2022-11-18T02:33:39.894Z,2.40
2022-11-18T02:36:11.463Z,2.30
2022-11-18T02:38:45.719Z,2.20
2022-11-18T02:41:16.418Z,2.20
2022-11-18T02:43:45.823Z,2.20
2022-11-18T02:46:17.599Z,2.10
2022-11-18T02:48:48.588Z,2.20
2022-11-18T02:51:18.774Z,2.20
2022-11-18T02:53:48.881Z,2.30
2022-11-18T02:56:18.491Z,2.30
2022-11-18T02:58:46.928Z,2.40
2022-11-18T03:01:21.788Z,2.40
2022-11-18T03:03:50.735Z,2.50
2022-11-18T03:06:24.621Z,2.50
2022-11-18T03:08:59.132Z,2.50
2022-11-18T03:11:29.794Z,2.50
2022-11-18T03:14:07.001Z,2.50
2022-11-18T03:16:38.714Z,2.50
2022-11-18T03:19:10.988Z,2.50
2022-11-18T03:21:41.703Z,2.30
2022-11-18T03:24:16.143Z,2.50
2022-11-18T03:26:47.223Z,2.40
2022-11-18T03:29:19.377Z,2.50
2022-11-18T03:31:51.686Z,2.50
2022-11-18T03:34:22.240Z,2.50
2022-11-18T03:36:52.249Z,2.40
2022-11-18T03:39:21.902Z,2.50
2022-11-18T03:41:53.214Z,2.40
2022-11-18T03:44:24.974Z,2.50
2022-11-18T03:46:58.062Z,2.50
2022-11-18T03:49:28.332Z,2.40
2022-11-18T03:51:58.573Z,2.40
2022-11-18T03:54:29.096Z,2.40
2022-11-18T03:56:59.018Z,2.30
2022-11-18T03:59:31.530Z,2.30
2022-11-18T04:02:04.153Z,2.30
2022-11-18T04:04:32.373Z,2.40
2022-11-18T04:07:03.604Z,2.40
2022-11-18T04:09:33.904Z,2.30
2022-11-18T04:12:04.845Z,2.30
2022-11-18T04:14:33.789Z,2.30
2022-11-18T04:17:07.189Z,2.30
2022-11-18T04:19:35.318Z,2.30
2022-11-18T04:22:03.538Z,2.40
2022-11-18T04:24:31.827Z,2.40
2022-11-18T04:27:00.070Z,2.40
2022-11-18T04:29:28.279Z,2.40
2022-11-18T04:31:56.603Z,2.30
2022-11-18T04:34:26.311Z,2.30
2022-11-18T04:36:54.413Z,2.40
2022-11-18T04:39:22.546Z,2.30
2022-11-18T04:41:56.910Z,2.30
2022-11-18T04:44:25.720Z,2.30
2022-11-18T04:46:54.315Z,2.40
2022-11-18T04:49:22.773Z,2.30
2022-11-18T04:51:52.690Z,2.40
2022-11-18T04:54:21.233Z,2.40
2022-11-18T04:56:50.101Z,2.30
2022-11-18T04:59:19.490Z,2.40
2022-11-18T05:01:48.312Z,2.30
2022-11-18T05:04:18.817Z,2.20
2022-11-18T05:06:47.222Z,2.20
2022-11-18T05:09:17.249Z,2.30
2022-11-18T05:12:02.942Z,2.30
2022-11-18T05:14:32.848Z,2.30
2022-11-18T05:17:01.931Z,2.30
2022-11-18T05:19:30.238Z,2.20
2022-11-18T05:21:58.677Z,2.30
2022-11-18T05:24:28.168Z,2.20
2022-11-18T05:26:56.367Z,2.30
2022-11-18T05:29:24.824Z,2.40
2022-11-18T05:31:52.930Z,2.30
2022-11-18T05:34:21.208Z,2.30
2022-11-18T05:36:49.466Z,2.20
2022-11-18T05:39:18.144Z,2.30
2022-11-18T05:42:05.207Z,2.20
2022-11-18T05:44:33.441Z,2.30
2022-11-18T05:47:03.929Z,2.30
2022-11-18T05:49:32.082Z,2.30
2022-11-18T05:52:00.401Z,2.30
2022-11-18T05:54:29.169Z,2.30
2022-11-18T05:56:58.718Z,2.40
2022-11-18T05:59:26.884Z,2.40
2022-11-18T06:01:57.684Z,2.40
2022-11-18T06:04:27.891Z,2.50
2022-11-18T06:06:58.718Z,2.50
2022-11-18T06:09:28.312Z,2.50
2022-11-18T06:11:58.265Z,2.50
2022-11-18T06:14:29.997Z,2.40
2022-11-18T06:16:59.754Z,2.50
2022-11-18T06:19:27.921Z,2.50
2022-11-18T06:21:56.175Z,2.60
2022-11-18T06:24:24.926Z,2.50
2022-11-18T06:26:53.250Z,2.50
2022-11-18T06:29:27.465Z,2.70
2022-11-18T06:31:57.702Z,2.70
2022-11-18T06:34:25.829Z,2.70
2022-11-18T06:36:53.978Z,2.70
2022-11-18T06:39:22.262Z,2.70
2022-11-18T06:41:50.318Z,2.80
2022-11-18T06:44:17.772Z,2.70
2022-11-18T06:46:57.920Z,2.80
2022-11-18T06:49:28.022Z,2.90
2022-11-18T06:51:56.494Z,2.80
2022-11-18T06:54:24.578Z,2.80
2022-11-18T06:56:52.640Z,2.80
2022-11-18T06:59:23.907Z,2.80
2022-11-18T07:01:53.688Z,2.80
2022-11-18T07:04:22.060Z,2.80
2022-11-18T07:06:51.581Z,2.80
2022-11-18T07:09:21.951Z,2.80
2022-11-18T07:11:50.135Z,2.80
2022-11-18T07:14:18.214Z,2.80
2022-11-18T07:16:46.314Z,2.80
2022-11-18T07:19:14.895Z,2.80
2022-11-18T07:21:44.010Z,2.80
2022-11-18T07:24:15.289Z,2.80
2022-11-18T07:26:43.950Z,2.70
2022-11-18T07:29:12.022Z,2.80
2022-11-18T07:31:41.134Z,2.80
2022-11-18T07:34:09.236Z,2.80
2022-11-18T07:36:37.638Z,2.80
2022-11-18T07:39:06.472Z,2.80
2022-11-18T07:41:36.373Z,2.80
2022-11-18T07:44:05.383Z,2.80
2022-11-18T07:46:34.250Z,2.80
2022-11-18T07:49:02.937Z,2.80
2022-11-18T07:51:32.297Z,2.70
2022-11-18T07:54:00.447Z,2.80
2022-11-18T07:56:28.583Z,2.70
2022-11-18T07:58:58.231Z,2.70
2022-11-18T08:01:29.187Z,2.70
2022-11-18T08:03:58.026Z,2.70
2022-11-18T08:06:26.135Z,2.60
2022-11-18T08:08:54.301Z,2.60
2022-11-18T08:11:23.159Z,2.50
2022-11-18T08:13:51.696Z,2.60
2022-11-18T08:16:21.922Z,2.60
2022-11-18T08:18:50.279Z,2.60
2022-11-18T08:21:19.491Z,2.70
2022-11-18T08:23:50.533Z,2.70
2022-11-18T08:26:18.963Z,2.60
2022-11-18T08:28:47.155Z,2.60
2022-11-18T08:31:16.861Z,2.60
2022-11-18T08:33:46.712Z,2.60
2022-11-18T08:36:16.319Z,2.60
2022-11-18T08:38:44.835Z,2.60
2022-11-18T08:41:13.956Z,2.60
2022-11-18T08:43:45.155Z,2.70
2022-11-18T08:46:14.712Z,2.60
2022-11-18T08:48:43.083Z,2.60
2022-11-18T08:51:13.597Z,2.60
2022-11-18T08:53:41.850Z,2.60
2022-11-18T08:56:14.169Z,2.60
2022-11-18T08:58:42.691Z,2.60
2022-11-18T09:01:10.853Z,2.60
2022-11-18T09:03:39.059Z,2.60
2022-11-18T09:06:09.161Z,2.60
2022-11-18T09:08:38.902Z,2.60
2022-11-18T09:11:07.779Z,2.60
2022-11-18T09:16:27.918Z,2.60
2022-11-18T09:18:57.049Z,2.60
2022-11-18T09:21:28.466Z,2.50
2022-11-18T09:23:58.601Z,2.50
2022-11-18T09:26:29.708Z,2.50
2022-11-18T09:28:57.850Z,2.50
2022-11-18T09:31:25.914Z,2.50
2022-11-18T09:33:54.032Z,2.50
2022-11-18T09:36:22.901Z,2.50
2022-11-18T09:38:53.397Z,2.50
2022-11-18T09:41:28.478Z,2.40
2022-11-18T09:44:03.079Z,2.40
2022-11-18T09:46:35.172Z,2.30
2022-11-18T09:49:21.539Z,2.30
2022-11-18T09:51:52.748Z,2.40
2022-11-18T09:54:22.489Z,2.50
2022-11-18T09:56:56.525Z,2.50
2022-11-18T09:59:26.314Z,2.50
2022-11-18T10:01:56.060Z,2.40
2022-11-18T10:04:24.167Z,2.50
2022-11-18T10:06:52.663Z,2.50
2022-11-18T10:09:26.614Z,2.40
2022-11-18T10:12:04.818Z,2.40
2022-11-18T10:14:41.182Z,2.50
2022-11-18T10:17:11.989Z,2.50
2022-11-18T10:19:42.582Z,2.40
2022-11-18T10:22:21.178Z,2.40
2022-11-18T10:24:53.597Z,2.50
2022-11-18T10:27:24.630Z,2.50
2022-11-18T10:29:55.183Z,2.50
2022-11-18T10:32:23.511Z,2.50
2022-11-18T10:34:54.786Z,2.50
2022-11-18T10:37:38.738Z,2.50
2022-11-18T10:40:24.844Z,2.60
2022-11-18T10:42:54.547Z,2.60
2022-11-18T10:45:26.875Z,2.50
2022-11-18T10:47:59.262Z,2.50
2022-11-18T10:50:32.686Z,2.50
2022-11-18T10:53:00.925Z,2.50
2022-11-18T10:55:29.396Z,2.50
2022-11-18T10:58:01.238Z,2.60
2022-11-18T11:00:40.276Z,2.60
2022-11-18T11:03:24.700Z,2.60
2022-11-18T11:06:07.710Z,2.60
2022-11-18T11:08:37.565Z,2.60
2022-11-18T11:11:19.862Z,2.60
2022-11-18T11:13:49.563Z,2.60
2022-11-18T11:16:24.900Z,2.60
2022-11-18T11:18:57.155Z,2.60
2022-11-18T11:21:28.076Z,2.50
2022-11-18T11:23:56.164Z,2.50
2022-11-18T11:29:49.251Z,2.60
2022-11-18T11:32:20.959Z,2.60
2022-11-18T11:34:53.501Z,2.60
2022-11-18T11:37:29.131Z,2.50
2022-11-18T11:40:13.546Z,2.50
2022-11-18T11:42:46.743Z,2.40
2022-11-18T11:45:20.002Z,2.40
2022-11-18T11:47:57.080Z,2.40
2022-11-18T11:50:29.466Z,2.60
2022-11-18T11:53:04.940Z,2.40
2022-11-18T11:55:47.237Z,2.40
2022-11-18T11:58:20.912Z,2.40
2022-11-18T12:00:55.332Z,2.40
2022-11-18T12:03:36.394Z,2.40
2022-11-18T12:06:06.720Z,2.40
2022-11-18T12:08:35.285Z,2.40
2022-11-18T12:11:06.296Z,2.30
2022-11-18T12:13:39.463Z,2.30
2022-11-18T12:16:20.885Z,2.30
2022-11-18T12:18:50.593Z,2.30
2022-11-18T12:21:37.320Z,2.30
2022-11-18T12:24:20.700Z,2.30
2022-11-18T12:26:49.688Z,2.20
2022-11-18T12:29:23.399Z,2.00
2022-11-18T12:31:55.125Z,1.80
2022-11-18T12:34:43.827Z,1.80
2022-11-18T12:37:36.012Z,1.80
2022-11-18T12:40:04.313Z,1.80
2022-11-18T12:43:00.369Z,1.80
2022-11-18T12:45:58.703Z,1.90
2022-11-18T12:48:36.144Z,1.90
2022-11-18T12:51:12.177Z,1.90
2022-11-18T12:53:41.536Z,1.90
2022-11-18T12:56:14.033Z,1.90
2022-11-18T12:58:45.800Z,1.90
2022-11-18T13:01:14.889Z,1.90
2022-11-18T13:03:44.626Z,2.00
2022-11-18T13:06:24.596Z,2.10
2022-11-18T13:08:55.195Z,2.10
2022-11-18T13:11:49.651Z,2.20
2022-11-18T13:14:35.869Z,2.10
2022-11-18T13:17:21.692Z,2.10
2022-11-18T13:19:58.061Z,2.10
2022-11-18T13:22:49.101Z,2.10
2022-11-18T13:25:23.704Z,2.10
2022-11-18T13:27:53.865Z,2.10
2022-11-18T13:30:22.239Z,2.20
2022-11-18T13:32:59.475Z,2.10
2022-11-18T13:35:30.716Z,2.10
2022-11-18T13:37:59.670Z,2.10
2022-11-18T13:40:28.866Z,2.10
2022-11-18T13:42:57.039Z,2.10
2022-11-18T13:45:27.702Z,2.10
2022-11-18T13:47:59.346Z,2.00
2022-11-18T13:50:33.726Z,2.10
2022-11-18T13:53:16.560Z,2.10
2022-11-18T13:55:47.503Z,2.10
2022-11-18T13:58:26.188Z,2.10
2022-11-18T14:00:56.412Z,2.10
2022-11-18T14:03:27.464Z,2.10
2022-11-18T14:05:58.072Z,2.10
2022-11-18T14:08:27.901Z,2.10
2022-11-18T14:10:56.236Z,2.00
2022-11-18T14:13:26.237Z,2.10
2022-11-18T14:15:54.806Z,2.10
2022-11-18T14:18:29.324Z,2.10
2022-11-18T14:20:58.908Z,2.10
2022-11-18T14:23:29.055Z,2.10
2022-11-18T14:26:01.095Z,2.10
2022-11-18T14:28:30.462Z,2.10
2022-11-18T14:31:04.000Z,2.10
2022-11-18T14:33:32.776Z,2.10
2022-11-18T14:36:03.296Z,2.10
2022-11-18T14:41:44.924Z,2.20
2022-11-18T14:44:16.659Z,2.20
2022-11-18T14:46:46.157Z,2.20
2022-11-18T14:49:19.054Z,2.30
2022-11-18T14:51:49.069Z,2.30
2022-11-18T14:54:25.839Z,2.30
2022-11-18T14:56:55.937Z,2.30
2022-11-18T14:59:24.186Z,2.30
2022-11-18T15:01:52.500Z,2.30
2022-11-18T15:04:23.843Z,2.40
2022-11-18T15:06:53.584Z,2.30
2022-11-18T15:09:21.868Z,2.30
2022-11-18T15:11:50.031Z,2.40
2022-11-18T15:14:18.494Z,2.40
2022-11-18T15:16:47.000Z,2.40
2022-11-18T15:19:16.150Z,2.40
2022-11-18T15:21:45.602Z,2.50
2022-11-18T15:24:15.900Z,2.40
2022-11-18T15:26:45.580Z,2.50
2022-11-18T15:29:17.192Z,2.40
2022-11-18T15:31:45.540Z,2.40
2022-11-18T15:34:13.750Z,2.40
2022-11-18T15:36:41.883Z,2.30
2022-11-18T15:39:10.789Z,2.20
2022-11-18T15:41:41.186Z,2.20
2022-11-18T15:44:10.871Z,2.20
2022-11-18T15:46:38.947Z,2.30
2022-11-18T15:49:09.549Z,2.30
2022-11-18T15:51:38.169Z,2.30
2022-11-18T15:54:06.262Z,2.20
2022-11-18T15:56:34.544Z,2.30
2022-11-18T15:59:05.373Z,2.30
2022-11-18T16:01:34.397Z,2.20
2022-11-18T16:04:02.864Z,2.20
2022-11-18T16:06:30.980Z,2.30
2022-11-18T16:09:00.417Z,2.30
2022-11-18T16:11:46.614Z,2.30
2022-11-18T16:14:20.034Z,2.20
2022-11-18T16:16:49.219Z,2.20
2022-11-18T16:19:18.180Z,2.30
2022-11-18T16:21:47.662Z,2.30
2022-11-18T16:24:17.062Z,2.70
2022-11-18T16:26:45.397Z,2.30
2022-11-18T16:29:16.032Z,2.30
2022-11-18T16:31:50.673Z,2.20
2022-11-18T16:34:20.007Z,2.20
2022-11-18T16:36:49.150Z,2.20
2022-11-18T16:39:18.393Z,2.10
2022-11-18T16:41:48.508Z,2.20
2022-11-18T16:44:17.229Z,2.20
2022-11-18T16:46:48.600Z,2.30
2022-11-18T16:49:18.429Z,2.20
2022-11-18T16:51:47.631Z,2.30
2022-11-18T16:54:17.104Z,2.40
2022-11-18T16:56:45.459Z,2.30
2022-11-18T16:59:14.901Z,2.30
2022-11-18T17:01:43.255Z,2.30
2022-11-18T17:04:12.864Z,2.30
2022-11-18T17:06:41.468Z,2.30
2022-11-18T17:09:13.668Z,2.30
2022-11-18T17:11:41.904Z,2.20
2022-11-18T17:14:10.077Z,2.30
2022-11-18T17:16:38.295Z,2.20
2022-11-18T17:19:11.629Z,2.20
2022-11-18T17:21:41.562Z,2.20
2022-11-18T17:24:09.967Z,2.10
2022-11-18T17:26:38.118Z,2.00
2022-11-18T17:29:06.272Z,2.00
2022-11-18T17:31:36.596Z,2.00
2022-11-18T17:34:04.767Z,2.10
2022-11-18T17:36:33.020Z,2.00
2022-11-18T17:39:02.775Z,2.10
2022-11-18T17:41:47.990Z,2.00
2022-11-18T17:44:17.438Z,2.10
2022-11-18T17:46:47.256Z,2.20
2022-11-18T17:49:18.199Z,2.20
2022-11-18T17:51:47.261Z,2.20
2022-11-18T17:54:17.107Z,2.10
2022-11-18T17:56:45.435Z,2.00
2022-11-18T17:59:14.806Z,2.10
2022-11-18T18:01:42.889Z,2.10
2022-11-18T18:04:11.258Z,2.10
2022-11-18T18:06:39.345Z,2.10
2022-11-18T18:09:07.484Z,2.20
2022-11-18T18:11:37.593Z,2.20
2022-11-18T18:14:14.119Z,2.10
2022-11-18T18:16:43.736Z,2.30
2022-11-18T18:19:15.050Z,2.10
2022-11-18T18:21:43.296Z,2.20
2022-11-18T18:24:11.675Z,2.20
2022-11-18T18:26:41.372Z,2.20
2022-11-18T18:29:09.560Z,2.10
2022-11-18T18:31:38.100Z,2.10
2022-11-18T18:34:06.371Z,2.00
2022-11-18T18:36:34.840Z,2.00
2022-11-18T18:39:03.141Z,2.00
2022-11-18T18:41:32.423Z,2.00
2022-11-18T18:44:04.743Z,2.00
2022-11-18T18:46:32.363Z,1.60
2022-11-18T18:49:02.116Z,2.10
2022-11-18T18:51:31.474Z,2.00
2022-11-18T18:54:00.150Z,2.10
2022-11-18T18:56:28.672Z,2.10
2022-11-18T18:58:57.680Z,2.10
2022-11-18T19:01:28.586Z,2.00
2022-11-18T19:03:57.409Z,2.00
2022-11-18T19:06:51.584Z,2.00
2022-11-18T19:09:15.011Z,2.00
2022-11-18T19:12:00.596Z,2.00
2022-11-18T19:14:29.259Z,2.00
2022-11-18T19:16:59.858Z,2.00
2022-11-18T19:19:48.027Z,2.00
2022-11-18T19:22:16.579Z,2.00
2022-11-18T19:24:52.649Z,2.00
2022-11-18T19:27:24.521Z,2.00
2022-11-18T19:29:52.737Z,2.00
2022-11-18T19:32:22.406Z,2.00
2022-11-18T19:34:50.502Z,2.00
2022-11-18T19:37:18.710Z,1.90
2022-11-18T19:39:46.747Z,1.90
2022-11-18T19:42:14.944Z,1.90
2022-11-18T19:44:43.108Z,1.90
2022-11-18T19:47:11.234Z,2.00
2022-11-18T19:49:40.985Z,1.90
2022-11-18T19:52:09.221Z,1.80
2022-11-18T19:54:37.436Z,1.90
2022-11-18T19:57:05.805Z,1.90
2022-11-18T19:59:34.272Z,1.90
2022-11-18T20:02:02.380Z,1.90
2022-11-18T20:04:30.524Z,2.00
2022-11-18T20:07:00.220Z,1.90
2022-11-18T20:09:28.415Z,1.90
2022-11-18T20:11:58.360Z,1.80
2022-11-18T20:14:26.618Z,1.90
2022-11-18T20:16:54.724Z,1.90
2022-11-18T20:19:23.162Z,1.90
2022-11-18T20:21:52.700Z,1.90
2022-11-18T20:24:22.448Z,1.90
2022-11-18T20:26:52.408Z,1.90
2022-11-18T20:29:26.419Z,1.90
2022-11-18T20:31:55.289Z,1.90
2022-11-18T20:34:23.612Z,2.00
2022-11-18T20:36:54.861Z,1.90
2022-11-18T20:39:25.860Z,1.90
2022-11-18T20:42:07.774Z,1.90
2022-11-18T20:44:36.097Z,1.90
2022-11-18T20:47:04.180Z,1.90
2022-11-18T20:49:32.356Z,1.80
2022-11-18T20:52:00.473Z,1.80
2022-11-18T20:54:30.009Z,1.90
2022-11-18T20:56:58.290Z,1.80
2022-11-18T20:59:26.432Z,1.70
2022-11-18T21:01:54.584Z,1.70
2022-11-18T21:04:22.720Z,1.70
2022-11-18T21:06:59.144Z,1.70
2022-11-18T21:09:31.536Z,1.80
2022-11-18T21:12:01.271Z,1.70
2022-11-18T21:14:28.403Z,1.70
2022-11-18T21:17:00.673Z,1.70
2022-11-18T21:19:29.013Z,1.60
2022-11-18T21:21:56.407Z,1.60
2022-11-18T21:24:25.196Z,1.70
2022-11-18T21:26:55.403Z,1.60
2022-11-18T21:29:27.453Z,1.60
2022-11-18T21:32:00.675Z,1.60
2022-11-18T21:34:28.912Z,1.50
2022-11-18T21:36:56.991Z,1.50
2022-11-18T21:39:26.396Z,1.50
2022-11-18T21:41:56.798Z,1.60
2022-11-18T21:44:27.953Z,1.60
2022-11-18T21:46:56.791Z,1.50
2022-11-18T21:49:24.980Z,1.50
2022-11-18T21:51:56.265Z,1.50
2022-11-18T21:54:24.514Z,1.60
2022-11-18T21:56:53.775Z,1.60
2022-11-18T21:59:22.547Z,1.60
2022-11-18T22:01:52.155Z,1.70
2022-11-18T22:04:34.095Z,1.60
2022-11-18T22:07:02.409Z,1.60
2022-11-18T22:09:36.197Z,1.50
2022-11-18T22:12:06.050Z,1.50
2022-11-18T22:14:34.319Z,1.60
2022-11-18T22:17:04.072Z,1.50
2022-11-18T22:19:32.188Z,1.60
2022-11-18T22:22:00.351Z,1.60
2022-11-18T22:24:28.460Z,1.50
2022-11-18T22:26:56.540Z,1.50
2022-11-18T22:29:26.233Z,1.50
2022-11-18T22:31:54.626Z,1.40
2022-11-18T22:34:24.132Z,1.50
2022-11-18T22:36:52.259Z,1.50
2022-11-18T22:39:20.631Z,1.50
2022-11-18T22:42:06.524Z,1.40
2022-11-18T22:44:34.681Z,1.40
2022-11-18T22:47:02.780Z,1.40
2022-11-18T22:49:32.315Z,1.40
2022-11-18T22:52:00.663Z,1.50
2022-11-18T22:54:38.760Z,1.40
2022-11-18T22:57:07.179Z,1.30
2022-11-18T22:59:35.305Z,1.40
2022-11-18T23:02:03.572Z,1.40
2022-11-18T23:04:33.250Z,1.40
2022-11-18T23:07:01.495Z,1.30
2022-11-18T23:09:29.660Z,1.20
2022-11-18T23:12:15.087Z,1.20
2022-11-18T23:14:44.504Z,1.20
2022-11-18T23:17:12.597Z,1.20
2022-11-18T23:19:44.040Z,1.30
2022-11-18T23:22:12.655Z,1.30
2022-11-18T23:24:41.065Z,1.40
2022-11-18T23:27:11.503Z,1.40
2022-11-18T23:29:39.713Z,1.40
2022-11-18T23:32:07.814Z,1.30
2022-11-18T23:34:37.909Z,1.30
2022-11-18T23:37:07.371Z,1.30
2022-11-18T23:39:37.407Z,1.30
2022-11-18T23:42:08.617Z,1.20
2022-11-18T23:44:52.789Z,1.20
2022-11-18T23:47:21.015Z,1.20
2022-11-18T23:49:49.243Z,1.30
2022-11-18T23:52:18.700Z,1.30
2022-11-18T23:54:46.797Z,1.30
2022-11-18T23:57:17.219Z,1.30
2022-11-18T23:59:45.332Z,1.50
